createdAt,value
2022-09-28T00:04:25.846Z,8.73
2022-09-28T00:09:18.177Z,8.73
2022-09-28T00:14:12.149Z,8.70
2022-09-28T00:19:03.633Z,8.68
2022-09-28T00:24:08.742Z,8.62
2022-09-28T00:29:02.410Z,8.60
2022-09-28T00:33:57.239Z,8.52
2022-09-28T00:38:48.096Z,8.50
2022-09-28T00:43:38.490Z,8.50
2022-09-28T00:48:32.466Z,8.42
2022-09-28T00:53:29.691Z,8.42
2022-09-28T00:58:23.816Z,8.35
2022-09-28T01:03:16.012Z,8.29
2022-09-28T01:08:07.836Z,8.23
2022-09-28T01:13:01.791Z,8.22
2022-09-28T01:18:11.298Z,8.17
2022-09-28T01:23:37.172Z,8.21
2022-09-28T01:28:33.400Z,8.26
2022-09-28T01:33:30.431Z,8.30
2022-09-28T01:38:24.352Z,8.33
2022-09-28T01:43:21.525Z,8.39
2022-09-28T01:48:24.839Z,8.42
2022-09-28T01:53:22.826Z,8.45
2022-09-28T01:58:18.186Z,8.49
2022-09-28T02:03:13.973Z,8.48
2022-09-28T02:08:25.767Z,8.50
2022-09-28T02:13:19.845Z,8.50
2022-09-28T02:18:10.713Z,8.51
2022-09-28T02:23:05.028Z,8.51
2022-09-28T02:28:02.504Z,8.52
2022-09-28T02:32:57.178Z,8.57
2022-09-28T02:37:49.180Z,8.54
2022-09-28T02:42:48.645Z,8.51
2022-09-28T02:48:02.378Z,8.49
2022-09-28T02:53:26.842Z,8.41
2022-09-28T02:58:30.923Z,8.40
2022-09-28T03:03:32.553Z,8.36
2022-09-28T03:08:28.873Z,8.39
2022-09-28T03:13:21.265Z,8.39
2022-09-28T03:18:12.374Z,8.43
2022-09-28T03:23:25.152Z,8.44
2022-09-28T03:28:17.017Z,8.46
2022-09-28T03:33:08.130Z,8.50
2022-09-28T03:37:59.941Z,8.43
2022-09-28T03:42:55.810Z,8.55
2022-09-28T03:47:50.638Z,8.52
2022-09-28T03:52:42.321Z,8.54
2022-09-28T03:57:33.598Z,8.50
2022-09-28T04:02:26.980Z,8.51
2022-09-28T04:07:22.301Z,8.51
2022-09-28T04:12:14.207Z,8.49
2022-09-28T04:17:05.438Z,8.31
2022-09-28T04:21:58.997Z,8.41
2022-09-28T04:26:49.869Z,8.44
2022-09-28T04:31:43.093Z,8.44
2022-09-28T04:36:33.865Z,8.48
2022-09-28T04:41:27.008Z,8.53
2022-09-28T04:46:17.988Z,8.55
2022-09-28T04:51:35.078Z,8.55
2022-09-28T04:56:28.503Z,8.56
2022-09-28T05:01:25.887Z,8.56
2022-09-28T05:06:35.182Z,8.54
2022-09-28T05:11:34.125Z,8.55
2022-09-28T05:16:25.935Z,8.54
2022-09-28T05:21:35.341Z,8.47
2022-09-28T05:26:26.656Z,8.57
2022-09-28T05:31:20.230Z,8.64
2022-09-28T05:36:32.763Z,8.68
2022-09-28T05:41:24.994Z,8.61
2022-09-28T05:46:16.027Z,8.62
2022-09-28T05:51:11.320Z,8.60
2022-09-28T05:56:02.707Z,8.48
2022-09-28T06:00:58.204Z,8.64
2022-09-28T06:05:52.408Z,8.67
2022-09-28T06:10:45.811Z,8.70
2022-09-28T06:15:39.879Z,8.75
2022-09-28T06:20:35.373Z,8.77
2022-09-28T06:25:53.093Z,8.78
2022-09-28T06:30:46.604Z,8.83
2022-09-28T06:35:42.571Z,8.86
2022-09-28T06:40:35.160Z,8.89
2022-09-28T06:45:32.523Z,8.76
2022-09-28T06:50:54.458Z,8.87
2022-09-28T06:56:14.964Z,8.90
2022-09-28T07:01:09.578Z,8.96
2022-09-28T07:06:18.750Z,8.95
2022-09-28T07:11:45.028Z,9.07
2022-09-28T07:17:11.023Z,9.09
2022-09-28T07:22:06.773Z,9.17
2022-09-28T07:26:57.040Z,9.24
2022-09-28T07:32:12.449Z,9.31
2022-09-28T07:37:26.895Z,9.43
2022-09-28T07:42:18.333Z,9.52
2022-09-28T07:47:11.964Z,9.63
2022-09-28T07:52:37.588Z,9.87
2022-09-28T07:57:52.429Z,10.11
2022-09-28T08:02:52.137Z,10.26
2022-09-28T08:07:46.933Z,10.41
2022-09-28T08:12:38.430Z,10.42
2022-09-28T08:17:42.032Z,10.47
2022-09-28T08:22:43.032Z,10.54
2022-09-28T08:27:35.519Z,10.55
2022-09-28T08:32:27.407Z,10.59
2022-09-28T08:37:39.519Z,10.64
2022-09-28T08:42:52.763Z,10.63
2022-09-28T08:48:34.922Z,10.77
2022-09-28T08:54:11.132Z,10.94
2022-09-28T08:59:17.263Z,11.13
2022-09-28T09:04:11.895Z,11.30
2022-09-28T09:09:34.434Z,11.42
2022-09-28T09:14:33.751Z,11.50
2022-09-28T09:19:35.589Z,11.66
2022-09-28T09:24:43.369Z,11.78
2022-09-28T09:29:36.475Z,11.96
2022-09-28T09:34:44.712Z,12.17
2022-09-28T09:40:05.077Z,12.48
2022-09-28T09:45:35.611Z,12.62
2022-09-28T09:50:58.689Z,12.64
2022-09-28T09:55:57.376Z,12.60
2022-09-28T10:01:02.195Z,12.63
2022-09-28T10:06:15.323Z,13.33
2022-09-28T10:11:13.972Z,13.98
2022-09-28T10:16:09.153Z,14.24
2022-09-28T10:21:08.226Z,14.11
2022-09-28T10:26:28.036Z,13.91
2022-09-28T10:31:40.547Z,13.76
2022-09-28T10:36:45.082Z,14.15
2022-09-28T10:41:51.309Z,14.42
2022-09-28T10:46:44.540Z,14.62
2022-09-28T10:51:45.396Z,14.79
2022-09-28T10:56:44.075Z,15.07
2022-09-28T11:01:40.331Z,15.28
2022-09-28T11:06:33.112Z,15.23
2022-09-28T11:11:23.930Z,15.39
2022-09-28T11:16:39.811Z,15.66
2022-09-28T11:21:32.264Z,15.80
2022-09-28T11:26:26.197Z,16.00
2022-09-28T11:31:16.658Z,16.04
2022-09-28T11:36:42.793Z,16.04
2022-09-28T11:41:59.107Z,15.88
2022-09-28T11:46:59.414Z,15.87
2022-09-28T11:51:55.549Z,15.69
2022-09-28T11:56:50.369Z,15.56
2022-09-28T12:01:45.669Z,15.53
2022-09-28T12:07:02.751Z,15.12
2022-09-28T12:11:57.618Z,14.57
2022-09-28T12:17:08.573Z,14.02
2022-09-28T12:22:06.218Z,13.71
2022-09-28T12:26:59.895Z,13.47
2022-09-28T12:31:57.411Z,13.28
2022-09-28T12:36:54.598Z,13.06
2022-09-28T12:41:58.222Z,12.89
2022-09-28T12:46:58.162Z,12.90
2022-09-28T12:51:58.374Z,12.95
2022-09-28T12:57:02.262Z,12.89
2022-09-28T13:02:05.112Z,12.87
2022-09-28T13:07:01.170Z,12.90
2022-09-28T13:12:02.806Z,12.82
2022-09-28T13:17:08.933Z,12.78
2022-09-28T13:22:19.402Z,12.89
2022-09-28T13:27:32.026Z,12.91
2022-09-28T13:32:33.351Z,12.80
2022-09-28T13:37:27.643Z,12.70
2022-09-28T13:43:03.345Z,12.70
2022-09-28T13:48:18.100Z,12.81
2022-09-28T13:53:27.408Z,13.05
2022-09-28T13:58:32.278Z,13.30
2022-09-28T14:03:33.900Z,13.47
2022-09-28T14:08:35.313Z,13.58
2022-09-28T14:14:08.351Z,13.63
2022-09-28T14:19:06.781Z,13.59
2022-09-28T14:24:13.782Z,13.50
2022-09-28T14:29:29.526Z,13.44
2022-09-28T14:34:38.919Z,13.50
2022-09-28T14:39:56.357Z,13.64
2022-09-28T14:45:45.678Z,13.58
2022-09-28T14:50:48.115Z,13.36
2022-09-28T14:55:58.525Z,13.20
2022-09-28T15:01:04.508Z,13.05
2022-09-28T15:06:00.271Z,12.94
2022-09-28T15:10:58.111Z,12.80
2022-09-28T15:16:10.357Z,12.70
2022-09-28T15:21:06.429Z,12.65
2022-09-28T15:26:02.120Z,12.63
2022-09-28T15:31:04.677Z,12.63
2022-09-28T15:36:07.526Z,12.79
2022-09-28T15:41:03.583Z,12.89
2022-09-28T15:46:06.487Z,12.97
2022-09-28T15:51:16.449Z,12.99
2022-09-28T15:56:27.325Z,13.04
2022-09-28T16:01:40.220Z,13.00
2022-09-28T16:06:35.073Z,12.95
2022-09-28T16:11:31.542Z,12.91
2022-09-28T16:16:25.575Z,12.81
2022-09-28T16:21:41.234Z,12.81
2022-09-28T16:26:40.957Z,12.73
2022-09-28T16:31:44.878Z,12.66
2022-09-28T16:36:49.060Z,12.64
2022-09-28T16:41:45.568Z,12.65
2022-09-28T16:46:40.693Z,12.62
2022-09-28T16:51:34.306Z,12.60
2022-09-28T16:56:28.103Z,12.54
2022-09-28T17:01:22.926Z,12.53
2022-09-28T17:06:18.446Z,12.46
2022-09-28T17:11:24.582Z,12.40
2022-09-28T17:16:57.644Z,12.29
2022-09-28T17:21:44.293Z,12.22
2022-09-28T17:26:37.911Z,12.19
2022-09-28T17:31:33.382Z,12.14
2022-09-28T17:36:30.956Z,12.05
2022-09-28T17:41:24.886Z,11.98
2022-09-28T17:46:37.396Z,11.91
2022-09-28T17:51:28.780Z,11.76
2022-09-28T17:56:19.711Z,11.73
2022-09-28T18:01:10.542Z,11.66
2022-09-28T18:06:24.550Z,11.56
2022-09-28T18:11:23.514Z,11.50
2022-09-28T18:16:25.100Z,11.42
2022-09-28T18:21:19.123Z,11.30
2022-09-28T18:26:19.997Z,11.22
2022-09-28T18:31:12.171Z,11.08
2022-09-28T18:36:02.838Z,11.00
2022-09-28T18:40:59.829Z,10.96
2022-09-28T18:45:50.492Z,10.90
2022-09-28T18:50:41.228Z,10.84
2022-09-28T18:55:32.205Z,10.83
2022-09-28T19:00:38.732Z,10.83
2022-09-28T19:05:29.473Z,10.78
2022-09-28T19:10:20.249Z,10.73
2022-09-28T19:15:15.257Z,10.69
2022-09-28T19:20:09.836Z,10.73
2022-09-28T19:25:00.170Z,10.70
2022-09-28T19:29:50.811Z,10.72
2022-09-28T19:34:41.195Z,10.70
2022-09-28T19:39:34.649Z,10.70
2022-09-28T19:44:27.904Z,10.74
2022-09-28T19:49:21.731Z,10.72
2022-09-28T19:54:14.997Z,10.64
2022-09-28T19:59:10.470Z,10.65
2022-09-28T20:04:02.141Z,10.60
2022-09-28T20:08:53.064Z,10.57
2022-09-28T20:13:43.751Z,10.53
2022-09-28T20:18:39.594Z,10.48
2022-09-28T20:23:30.081Z,10.42
2022-09-28T20:28:20.652Z,10.38
2022-09-28T20:33:15.743Z,10.33
2022-09-28T20:38:17.942Z,10.26
2022-09-28T20:43:09.662Z,10.18
2022-09-28T20:48:05.921Z,10.12
2022-09-28T20:52:56.949Z,10.14
2022-09-28T20:57:50.474Z,10.04
2022-09-28T21:02:41.231Z,9.98
2022-09-28T21:07:31.848Z,9.83
2022-09-28T21:12:22.058Z,9.82
2022-09-28T21:17:15.532Z,9.85
2022-09-28T21:22:07.247Z,9.81
2022-09-28T21:26:58.576Z,9.72
2022-09-28T21:31:49.652Z,9.75
2022-09-28T21:36:43.916Z,9.73
2022-09-28T21:41:34.630Z,9.73
2022-09-28T21:46:25.051Z,9.72
2022-09-28T21:51:17.894Z,9.72
2022-09-28T21:56:16.205Z,9.71
2022-09-28T22:01:09.794Z,9.72
2022-09-28T22:06:01.230Z,9.68
2022-09-28T22:11:06.180Z,9.68
2022-09-28T22:16:01.212Z,9.66
2022-09-28T22:20:51.708Z,9.69
2022-09-28T22:25:42.250Z,9.66
2022-09-28T22:30:34.300Z,9.63
2022-09-28T22:35:27.301Z,9.57
2022-09-28T22:40:18.917Z,9.52
2022-09-28T22:45:10.447Z,9.51
2022-09-28T22:50:00.660Z,9.43
2022-09-28T22:54:54.505Z,9.41
2022-09-28T22:59:45.775Z,9.38
2022-09-28T23:04:37.459Z,9.35
2022-09-28T23:09:29.922Z,9.27
2022-09-28T23:14:22.980Z,9.35
2022-09-28T23:19:13.351Z,9.27
2022-09-28T23:24:04.422Z,9.27
2022-09-28T23:28:55.660Z,9.22
2022-09-28T23:33:49.451Z,9.20
2022-09-28T23:38:40.734Z,9.19
2022-09-28T23:43:31.439Z,9.16
2022-09-28T23:48:21.983Z,9.10
2022-09-28T23:53:16.715Z,9.09
2022-09-28T23:58:07.256Z,8.99
